Time;durP1;ratioP1;P1;durP2;ratioP2;P2;SDS_P1;SDS_P2;PMS_P1;PMS_P2;Temp;Humidity;BMP_temperature;BMP_pressure;BME280_temperature;BME280_humidity;BME280_pressure;Samples;Min_cycle;Max_cycle;Signal;HPM_P1;HPM_P2
2024/01/18 00:00:25;;;;;;;171.77;90.33;;;13.30;82.20;;;;;;4593509;19;19999;-71
2024/01/18 00:02:22;;;;;;;182.37;94.73;;;13.30;82.10;;;;;;4592688;19;20014;-71
2024/01/18 00:03:57;;;;;;;117.80;64.47;;;13.30;82.10;;;;;;4593721;19;20389;-71
2024/01/18 00:05:32;;;;;;;110.47;58.80;;;13.30;82.10;;;;;;4594056;19;20006;-71
2024/01/18 00:07:06;;;;;;;77.53;44.30;;;13.30;82.10;;;;;;4593206;19;20008;-71
2024/01/18 00:08:42;;;;;;;78.87;47.77;;;13.40;82.70;;;;;;4593914;19;20005;-71
2024/01/18 00:10:17;;;;;;;113.23;61.50;;;13.40;82.10;;;;;;4593662;19;20381;-71
2024/01/18 00:11:52;;;;;;;156.37;87.43;;;13.30;82.20;;;;;;4593290;19;20006;-71
2024/01/18 00:13:26;;;;;;;104.97;61.40;;;13.30;82.20;;;;;;4593853;19;19991;-71
2024/01/18 00:15:01;;;;;;;48.77;31.73;;;13.30;82.20;;;;;;4593162;19;20460;-71
2024/01/18 00:16:36;;;;;;;47.33;30.23;;;13.30;82.20;;;;;;4593461;19;20403;-71
2024/01/18 00:18:11;;;;;;;78.07;47.50;;;13.40;82.20;;;;;;4593498;19;20015;-71
2024/01/18 00:19:46;;;;;;;102.97;61.07;;;13.30;82.30;;;;;;4593519;19;20021;-71
2024/01/18 00:21:21;;;;;;;100.93;59.40;;;13.40;82.30;;;;;;4593383;19;20409;-71
2024/01/18 00:22:57;;;;;;;87.37;53.40;;;13.40;82.40;;;;;;4591227;19;20010;-71
2024/01/18 00:24:33;;;;;;;72.70;46.57;;;13.30;82.40;;;;;;4593144;19;20396;-71
2024/01/18 00:26:07;;;;;;;54.53;35.63;;;13.40;82.30;;;;;;4593321;19;19998;-71
2024/01/18 00:27:42;;;;;;;61.27;39.80;;;13.40;82.40;;;;;;4592625;19;19999;-71
2024/01/18 00:29:18;;;;;;;92.87;59.40;;;13.40;82.20;;;;;;4593204;19;20417;-71
2024/01/18 00:30:53;;;;;;;79.47;49.60;;;13.30;82.30;;;;;;4593283;19;20003;-71
2024/01/18 00:32:26;;;;;;;77.07;48.80;;;13.30;82.50;;;;;;4592458;19;20507;-71
2024/01/18 00:34:01;;;;;;;69.60;44.57;;;13.20;82.70;;;;;;4593356;19;21011;-71
2024/01/18 00:35:36;;;;;;;45.77;31.97;;;13.20;83.00;;;;;;4592811;19;20035;-71
2024/01/18 00:37:11;;;;;;;89.07;56.43;;;13.20;83.20;;;;;;4592813;19;20002;-71
2024/01/18 00:38:47;;;;;;;77.43;50.00;;;13.30;83.30;;;;;;4592997;19;20488;-71
2024/01/18 00:40:21;;;;;;;64.57;42.97;;;13.30;83.40;;;;;;4593130;19;20389;-71
2024/01/18 00:41:55;;;;;;;47.23;33.43;;;13.30;83.40;;;;;;4592820;19;20002;-71
2024/01/18 00:43:31;;;;;;;47.10;33.27;;;13.30;83.30;;;;;;4592861;19;20013;-71
2024/01/18 00:45:06;;;;;;;43.53;31.53;;;13.30;83.30;;;;;;4593032;19;20009;-71
2024/01/18 00:46:40;;;;;;;33.87;25.53;;;13.30;83.20;;;;;;4592585;19;20006;-71
2024/01/18 00:48:16;;;;;;;33.90;24.70;;;13.30;83.10;;;;;;4593079;19;20021;-71
2024/01/18 00:49:50;;;;;;;30.10;23.13;;;13.30;83.20;;;;;;4592739;19;19995;-71
2024/01/18 00:51:25;;;;;;;31.23;22.93;;;13.30;83.40;;;;;;4592611;19;20439;-71
2024/01/18 00:53:00;;;;;;;30.40;22.77;;;13.30;83.30;;;;;;4591621;19;20010;-71
2024/01/18 00:54:35;;;;;;;29.00;21.10;;;13.30;83.20;;;;;;4592848;19;20406;-71
2024/01/18 00:56:11;;;;;;;30.30;23.40;;;13.30;83.20;;;;;;4591191;19;20051;-71
2024/01/18 00:57:47;;;;;;;31.40;23.10;;;13.30;83.20;;;;;;4591267;19;20319;-71
2024/01/18 00:59:21;;;;;;;27.47;22.30;;;13.30;83.10;;;;;;4592217;19;20431;-71
2024/01/18 01:17:32;;;;;;;33.63;24.83;;;13.30;82.80;;;;;;4563759;19;20631;-71
2024/01/18 01:19:08;;;;;;;32.97;25.03;;;13.30;82.70;;;;;;4592228;19;20844;-71
2024/01/18 01:20:42;;;;;;;30.63;23.20;;;13.30;82.70;;;;;;4592141;19;20002;-71
2024/01/18 01:22:17;;;;;;;33.37;25.47;;;13.20;82.90;;;;;;4592232;19;20323;-71
2024/01/18 01:23:54;;;;;;;30.23;24.27;;;13.20;83.20;;;;;;4592210;19;20457;-71
2024/01/18 01:25:28;;;;;;;32.47;25.67;;;13.20;83.40;;;;;;4592202;19;20411;-71
2024/01/18 01:27:03;;;;;;;31.93;25.40;;;13.20;83.50;;;;;;4590261;19;20418;-71
2024/01/18 01:28:38;;;;;;;33.37;24.63;;;13.20;83.60;;;;;;4590468;19;20401;-71
2024/01/18 01:30:13;;;;;;;31.00;24.30;;;13.20;83.60;;;;;;4590547;19;20693;-71
2024/01/18 01:31:48;;;;;;;28.50;23.73;;;13.30;83.70;;;;;;4592160;19;20002;-71
2024/01/18 01:33:24;;;;;;;34.13;23.90;;;13.30;83.70;;;;;;4591993;19;20010;-71
2024/01/18 01:34:59;;;;;;;29.10;22.53;;;13.30;83.60;;;;;;4591817;19;20016;-71
2024/01/18 01:36:33;;;;;;;34.37;25.80;;;13.30;83.50;;;;;;4591772;19;20922;-71
2024/01/18 01:38:09;;;;;;;35.67;26.47;;;13.30;83.50;;;;;;4590751;19;20010;-71
2024/01/18 01:39:44;;;;;;;38.87;29.10;;;13.30;83.50;;;;;;4591779;19;20003;-71
2024/01/18 01:41:18;;;;;;;45.23;30.70;;;13.30;83.30;;;;;;4590387;19;20318;-71
2024/01/18 01:42:54;;;;;;;38.97;27.07;;;13.30;83.50;;;;;;4591488;19;20354;-71
2024/01/18 01:44:29;;;;;;;31.83;24.13;;;13.30;83.40;;;;;;4591914;19;20423;-71
2024/01/18 01:46:04;;;;;;;32.77;24.43;;;13.30;83.40;;;;;;4591940;19;20014;-71
2024/01/18 01:47:40;;;;;;;31.80;23.47;;;13.30;83.40;;;;;;4590785;19;20010;-71
2024/01/18 01:49:15;;;;;;;32.77;24.60;;;13.30;83.40;;;;;;4591596;19;20035;-70
2024/01/18 01:50:49;;;;;;;31.93;24.43;;;13.30;83.40;;;;;;4590570;19;20002;-71
2024/01/18 01:52:25;;;;;;;33.50;25.13;;;13.30;83.30;;;;;;4591269;19;20369;-71
2024/01/18 01:53:59;;;;;;;36.90;27.07;;;13.30;83.20;;;;;;4591508;19;20006;-71
2024/01/18 01:55:34;;;;;;;36.00;26.40;;;13.30;83.20;;;;;;4590121;19;20006;-71
2024/01/18 01:57:10;;;;;;;34.03;25.60;;;13.30;83.30;;;;;;4589768;19;20017;-71
2024/01/18 01:58:45;;;;;;;41.13;28.10;;;13.30;83.20;;;;;;4590123;19;20006;-71
2024/01/18 02:00:21;;;;;;;38.33;26.53;;;13.30;83.10;;;;;;4591136;19;20426;-71
2024/01/18 02:01:57;;;;;;;35.30;25.33;;;13.30;83.20;;;;;;4591664;19;20687;-71
2024/01/18 02:03:31;;;;;;;35.57;25.67;;;13.30;83.30;;;;;;4588271;19;20206;-71
2024/01/18 02:05:06;;;;;;;38.10;26.10;;;13.30;83.10;;;;;;4587977;19;20013;-71
2024/01/18 02:06:41;;;;;;;34.70;25.57;;;13.30;83.10;;;;;;4588350;19;20006;-71
2024/01/18 02:08:16;;;;;;;32.40;22.70;;;13.30;83.10;;;;;;4589675;19;20480;-71
2024/01/18 02:09:50;;;;;;;29.73;23.50;;;13.30;83.20;;;;;;4590877;19;20005;-71
2024/01/18 02:11:25;;;;;;;33.40;25.10;;;13.20;83.20;;;;;;4590586;19;20015;-71
2024/01/18 02:13:00;;;;;;;36.03;25.63;;;13.20;83.30;;;;;;4589983;19;20444;-71
2024/01/18 02:14:35;;;;;;;36.63;26.50;;;13.20;83.60;;;;;;4591092;19;19995;-71
2024/01/18 02:16:11;;;;;;;40.67;26.93;;;13.20;83.90;;;;;;4594576;19;20400;-71
2024/01/18 02:17:45;;;;;;;34.50;26.60;;;13.20;84.00;;;;;;4594159;19;20552;-71
2024/01/18 02:19:19;;;;;;;41.30;32.47;;;13.20;84.10;;;;;;4595485;19;20447;-70
2024/01/18 02:20:55;;;;;;;38.83;29.50;;;13.20;84.10;;;;;;4595855;19;20774;-71
2024/01/18 02:22:30;;;;;;;33.90;25.60;;;13.20;84.10;;;;;;4595688;19;20431;-71
2024/01/18 02:24:13;;;;;;;31.93;24.87;;;13.30;84.10;;;;;;4595659;19;20418;-71
2024/01/18 02:25:49;;;;;;;30.17;23.37;;;13.30;84.10;;;;;;4595700;19;20503;-71
2024/01/18 02:27:23;;;;;;;31.30;24.57;;;13.30;83.90;;;;;;4594702;19;20457;-71
2024/01/18 02:28:58;;;;;;;30.60;23.30;;;13.30;83.90;;;;;;4594163;19;20496;-71
2024/01/18 02:30:33;;;;;;;31.20;24.67;;;13.30;84.00;;;;;;4595371;19;20006;-71
2024/01/18 02:32:08;;;;;;;34.17;25.70;;;13.30;83.80;;;;;;4595747;19;20506;-71
2024/01/18 02:33:42;;;;;;;32.77;24.23;;;13.30;83.80;;;;;;4595472;19;20420;-71
2024/01/18 02:35:18;;;;;;;30.10;24.63;;;13.30;83.70;;;;;;4595452;19;20480;-70
2024/01/18 02:36:52;;;;;;;33.43;23.90;;;13.30;83.60;;;;;;4593857;19;19999;-70
2024/01/18 02:38:27;;;;;;;31.87;24.10;;;13.30;83.50;;;;;;4595003;19;20392;-70
2024/01/18 02:40:02;;;;;;;36.87;27.37;;;13.30;83.50;;;;;;4595387;19;20377;-70
2024/01/18 02:41:37;;;;;;;33.33;25.00;;;13.30;83.50;;;;;;4593962;19;20314;-70
2024/01/18 02:43:11;;;;;;;32.27;24.93;;;13.30;83.40;;;;;;4593879;19;20003;-70
2024/01/18 02:44:47;;;;;;;32.87;26.03;;;13.30;83.40;;;;;;4594923;19;20413;-70
2024/01/18 02:46:21;;;;;;;30.40;24.97;;;13.30;83.40;;;;;;4593928;19;20878;-70
2024/01/18 02:47:55;;;;;;;37.37;25.77;;;13.30;83.40;;;;;;4593359;19;20495;-70
2024/01/18 02:49:31;;;;;;;36.93;28.37;;;13.30;83.40;;;;;;4595319;19;20525;-70
2024/01/18 02:51:06;;;;;;;32.90;25.10;;;13.30;83.40;;;;;;4593754;19;20741;-70
2024/01/18 02:52:40;;;;;;;36.57;27.33;;;13.30;83.40;;;;;;4594680;19;20010;-70
2024/01/18 02:54:17;;;;;;;36.87;27.83;;;13.30;83.20;;;;;;4595143;19;20382;-70
2024/01/18 02:55:51;;;;;;;35.97;26.77;;;13.30;83.30;;;;;;4595057;19;20393;-70
2024/01/18 02:57:25;;;;;;;34.63;26.43;;;13.30;83.30;;;;;;4592817;19;20456;-70
2024/01/18 02:59:01;;;;;;;32.60;25.43;;;13.30;83.20;;;;;;4594779;19;20585;-70
2024/01/18 03:00:36;;;;;;;32.03;26.33;;;13.30;83.20;;;;;;4594865;19;19998;-70
2024/01/18 03:02:10;;;;;;;33.30;25.70;;;13.20;83.10;;;;;;4595023;19;20710;-71
2024/01/18 03:03:45;;;;;;;31.60;25.00;;;13.20;83.30;;;;;;4595077;19;20489;-71
2024/01/18 03:05:19;;;;;;;31.80;26.13;;;13.20;83.50;;;;;;4595239;19;20401;-70
2024/01/18 03:06:53;;;;;;;32.47;25.07;;;13.20;83.90;;;;;;4594596;19;20066;-70
2024/01/18 03:08:29;;;;;;;32.60;24.57;;;13.20;84.00;;;;;;4595323;19;20003;-70
2024/01/18 03:10:04;;;;;;;34.10;26.00;;;13.20;84.20;;;;;;4594827;19;20434;-70
2024/01/18 03:11:39;;;;;;;33.73;24.93;;;13.20;83.70;;;;;;4594883;19;20397;-70
2024/01/18 03:13:15;;;;;;;30.37;24.47;;;13.20;84.00;;;;;;4594682;19;20430;-70
2024/01/18 03:14:50;;;;;;;34.27;25.70;;;13.30;83.90;;;;;;4594677;19;20013;-70
2024/01/18 03:16:24;;;;;;;34.97;26.93;;;13.20;83.80;;;;;;4593246;19;20490;-70
2024/01/18 03:18:00;;;;;;;35.10;26.03;;;13.20;83.90;;;;;;4592664;19;20469;-70
2024/01/18 03:19:34;;;;;;;35.83;28.67;;;13.30;83.70;;;;;;4594539;19;20424;-70
2024/01/18 03:21:09;;;;;;;34.87;26.77;;;13.30;83.60;;;;;;4594520;19;20503;-70
2024/01/18 03:22:46;;;;;;;36.77;27.93;;;13.30;83.50;;;;;;4594531;19;20947;-70
2024/01/18 03:24:21;;;;;;;37.67;29.03;;;13.30;83.50;;;;;;4594761;19;20016;-70
2024/01/18 03:25:55;;;;;;;39.00;29.83;;;13.30;83.30;;;;;;4594392;19;20485;-70
2024/01/18 03:27:31;;;;;;;37.57;28.70;;;13.30;83.20;;;;;;4591699;19;20453;-70
2024/01/18 03:29:05;;;;;;;39.30;30.13;;;13.30;83.10;;;;;;4593267;19;20020;-70
2024/01/18 03:30:40;;;;;;;36.90;29.47;;;13.30;83.20;;;;;;4594178;19;20673;-70
2024/01/18 03:32:16;;;;;;;42.50;31.37;;;13.30;83.10;;;;;;4594338;19;20369;-70
2024/01/18 03:33:51;;;;;;;34.57;27.53;;;13.30;83.00;;;;;;4594519;19;20074;-70
2024/01/18 03:35:26;;;;;;;34.93;27.60;;;13.30;83.10;;;;;;4594174;19;20405;-70
2024/01/18 03:37:02;;;;;;;36.47;27.93;;;13.30;83.00;;;;;;4593936;19;20007;-70
2024/01/18 03:38:36;;;;;;;37.07;28.07;;;13.30;82.90;;;;;;4594133;19;20436;-70
2024/01/18 03:40:11;;;;;;;37.93;29.57;;;13.30;82.90;;;;;;4593139;19;20427;-70
2024/01/18 03:41:47;;;;;;;34.77;28.47;;;13.30;82.80;;;;;;4593856;19;20012;-70
2024/01/18 03:43:21;;;;;;;38.27;29.00;;;13.30;82.90;;;;;;4594293;19;20500;-70
2024/01/18 03:44:56;;;;;;;36.03;29.37;;;13.30;82.80;;;;;;4594015;19;20433;-70
2024/01/18 03:46:31;;;;;;;38.30;29.90;;;13.30;82.90;;;;;;4594155;19;20406;-70
2024/01/18 03:48:06;;;;;;;38.40;29.50;;;13.30;82.90;;;;;;4592568;19;21074;-70
2024/01/18 03:49:41;;;;;;;35.73;29.47;;;13.30;82.80;;;;;;4592612;19;20331;-70
2024/01/18 03:51:17;;;;;;;38.27;28.73;;;13.30;82.70;;;;;;4594332;19;20006;-70
2024/01/18 03:52:52;;;;;;;38.63;29.77;;;13.30;82.80;;;;;;4594049;19;20019;-70
2024/01/18 03:54:26;;;;;;;42.97;34.53;;;13.30;82.90;;;;;;4593818;19;20397;-70
2024/01/18 03:56:02;;;;;;;40.70;31.63;;;13.20;82.80;;;;;;4593962;19;20480;-70
2024/01/18 03:57:37;;;;;;;42.10;32.23;;;13.20;83.00;;;;;;4593082;19;20469;-70
2024/01/18 03:59:15;;;;;;;44.03;34.03;;;13.20;83.30;;;;;;4593835;19;20425;-70
2024/01/18 04:00:51;;;;;;;42.83;34.33;;;13.10;83.50;;;;;;4594231;19;20030;-70
2024/01/18 04:02:25;;;;;;;43.77;36.77;;;13.10;83.80;;;;;;4593755;19;20450;-70
2024/01/18 04:04:03;;;;;;;62.47;53.43;;;13.10;83.90;;;;;;4594016;19;20958;-70
2024/01/18 04:05:38;;;;;;;51.00;41.30;;;13.20;83.90;;;;;;4592487;19;20006;-70
2024/01/18 04:07:13;;;;;;;47.80;36.90;;;13.20;84.00;;;;;;4592833;19;20485;-70
2024/01/18 04:08:48;;;;;;;44.37;35.00;;;13.20;83.80;;;;;;4593652;19;20511;-70
2024/01/18 04:10:23;;;;;;;45.43;34.63;;;13.20;83.70;;;;;;4592057;19;20480;-70
2024/01/18 04:11:58;;;;;;;62.17;46.37;;;13.20;83.60;;;;;;4593103;19;19999;-70
2024/01/18 04:13:33;;;;;;;50.47;38.87;;;13.20;83.50;;;;;;4593463;19;20431;-70
2024/01/18 04:15:09;;;;;;;46.87;37.00;;;13.20;83.40;;;;;;4593463;19;20377;-71
2024/01/18 04:16:44;;;;;;;60.80;47.87;;;13.20;83.30;;;;;;4593317;19;20740;-70
2024/01/18 04:18:19;;;;;;;55.73;41.43;;;13.20;83.40;;;;;;4593577;19;20529;-70
2024/01/18 04:19:55;;;;;;;47.07;32.40;;;13.20;83.20;;;;;;4593359;19;20408;-70
2024/01/18 04:21:30;;;;;;;49.80;34.50;;;13.20;83.00;;;;;;4591871;19;20393;-70
2024/01/18 04:23:04;;;;;;;59.97;38.63;;;13.20;83.00;;;;;;4592890;19;20421;-70
2024/01/18 04:24:41;;;;;;;76.33;45.80;;;13.20;83.10;;;;;;4593691;19;20416;-70
2024/01/18 04:26:15;;;;;;;68.13;41.37;;;13.20;83.10;;;;;;4593468;19;20090;-70
2024/01/18 04:27:50;;;;;;;69.00;41.93;;;13.20;83.10;;;;;;4592369;19;20750;-70
2024/01/18 04:29:26;;;;;;;88.87;49.87;;;13.20;83.50;;;;;;4593424;19;20036;-70
2024/01/18 04:31:00;;;;;;;88.20;50.10;;;13.20;83.00;;;;;;4593172;19;20006;-70
2024/01/18 04:32:35;;;;;;;60.33;40.73;;;13.20;83.00;;;;;;4593318;19;19995;-70
2024/01/18 04:34:13;;;;;;;53.70;37.07;;;13.10;83.30;;;;;;4593141;19;20014;-70
2024/01/18 04:35:48;;;;;;;49.73;35.63;;;13.10;83.60;;;;;;4591688;19;20035;-70
2024/01/18 04:37:22;;;;;;;45.00;34.47;;;13.10;83.60;;;;;;4592352;19;20410;-70
2024/01/18 04:38:58;;;;;;;55.67;41.37;;;13.20;83.70;;;;;;4592926;19;20381;-70
2024/01/18 04:40:33;;;;;;;66.40;50.17;;;13.30;83.70;;;;;;4592903;19;20379;-70
2024/01/18 04:42:12;;;;;;;41.60;31.67;;;13.40;83.60;;;;;;4592921;19;20291;-71
2024/01/18 04:43:48;;;;;;;53.10;36.23;;;13.50;83.30;;;;;;4592941;19;20006;-71
2024/01/18 04:45:23;;;;;;;61.63;41.60;;;13.70;83.10;;;;;;4592781;19;20700;-70
2024/01/18 04:46:57;;;;;;;66.10;41.33;;;13.80;83.00;;;;;;4592441;19;20018;-70
2024/01/18 04:48:33;;;;;;;52.23;40.73;;;13.80;82.60;;;;;;4592874;19;20068;-70
2024/01/18 04:50:08;;;;;;;42.60;33.30;;;13.90;82.40;;;;;;4591498;19;20014;-70
2024/01/18 04:51:42;;;;;;;51.00;37.80;;;14.00;82.30;;;;;;4593242;19;20445;-70
2024/01/18 04:53:18;;;;;;;48.30;36.87;;;14.00;82.20;;;;;;4593029;19;20010;-70
2024/01/18 04:54:52;;;;;;;49.83;36.77;;;14.00;82.00;;;;;;4592616;19;20029;-70
2024/01/18 04:56:27;;;;;;;54.57;38.50;;;14.00;82.00;;;;;;4592336;19;20455;-71
2024/01/18 04:58:02;;;;;;;51.00;37.30;;;14.10;81.90;;;;;;4591435;19;20017;-71
2024/01/18 04:59:37;;;;;;;46.57;34.93;;;14.10;81.80;;;;;;4592332;19;20002;-70
2024/01/18 05:01:11;;;;;;;49.33;36.33;;;14.10;81.80;;;;;;4592926;19;19999;-70
2024/01/18 05:02:47;;;;;;;46.10;34.07;;;14.10;81.70;;;;;;4592619;19;20023;-71
2024/01/18 05:04:22;;;;;;;46.43;34.63;;;14.10;81.60;;;;;;4591193;19;20026;-71
2024/01/18 05:06:01;;;;;;;42.23;32.53;;;14.10;81.60;;;;;;4591133;19;20006;-71
2024/01/18 05:07:44;;;;;;;40.60;32.33;;;14.10;81.60;;;;;;4590701;19;20963;-79
2024/01/18 05:09:19;;;;;;;41.90;32.33;;;14.10;81.40;;;;;;4592302;19;20361;-71
2024/01/18 05:10:54;;;;;;;47.13;36.47;;;14.10;81.60;;;;;;4592492;19;20472;-71
2024/01/18 05:12:30;;;;;;;42.77;32.80;;;14.00;81.20;;;;;;4592447;19;20920;-70
2024/01/18 05:14:04;;;;;;;47.70;32.97;;;14.00;81.20;;;;;;4592642;19;19999;-70
2024/01/18 05:15:38;;;;;;;48.47;36.50;;;14.00;81.20;;;;;;4592609;19;20002;-70
2024/01/18 05:17:13;;;;;;;51.97;37.43;;;14.00;81.30;;;;;;4590590;19;20018;-70
2024/01/18 05:18:47;;;;;;;48.93;38.37;;;14.00;81.30;;;;;;4590856;19;20051;-70
2024/01/18 05:20:21;;;;;;;48.30;34.20;;;14.00;81.20;;;;;;4591854;19;20002;-70
2024/01/18 05:21:56;;;;;;;44.13;32.93;;;14.00;81.10;;;;;;4592232;19;20312;-70
2024/01/18 05:23:33;;;;;;;44.23;33.83;;;14.00;81.10;;;;;;4592093;19;20002;-70
2024/01/18 05:25:08;;;;;;;47.97;33.80;;;14.00;81.00;;;;;;4592331;19;20367;-70
2024/01/18 05:26:45;;;;;;;43.53;32.47;;;14.00;81.00;;;;;;4592204;19;20014;-70
2024/01/18 05:28:19;;;;;;;45.60;33.77;;;13.90;80.80;;;;;;4590000;19;20041;-70
2024/01/18 05:29:55;;;;;;;51.30;37.33;;;14.00;80.80;;;;;;4590738;19;19999;-70
2024/01/18 05:31:30;;;;;;;43.37;33.17;;;14.00;80.70;;;;;;4590783;19;20006;-70
2024/01/18 05:33:04;;;;;;;57.43;42.20;;;14.00;80.80;;;;;;4591938;19;20002;-70
2024/01/18 05:34:40;;;;;;;58.87;42.33;;;13.90;80.90;;;;;;4592047;19;20413;-70
2024/01/18 05:36:16;;;;;;;54.63;41.87;;;14.00;80.80;;;;;;4592118;19;20082;-70
2024/01/18 05:37:50;;;;;;;61.00;47.57;;;14.00;80.80;;;;;;4591351;19;20341;-70
2024/01/18 05:39:25;;;;;;;69.60;50.60;;;14.10;81.00;;;;;;4591878;19;20006;-70
2024/01/18 05:41:01;;;;;;;46.23;35.93;;;14.10;80.70;;;;;;4591966;19;20440;-70
2024/01/18 05:42:35;;;;;;;65.43;50.67;;;14.20;80.60;;;;;;4590573;19;20022;-70
2024/01/18 05:44:09;;;;;;;53.00;42.57;;;14.30;80.40;;;;;;4591767;19;19994;-70
2024/01/18 05:45:44;;;;;;;54.30;42.30;;;14.30;80.30;;;;;;4592204;19;20894;-70
2024/01/18 05:47:20;;;;;;;45.50;35.77;;;14.40;80.10;;;;;;4591419;19;20962;-70
2024/01/18 05:48:54;;;;;;;50.20;34.97;;;14.50;79.90;;;;;;4591510;19;20002;-70
2024/01/18 05:50:29;;;;;;;47.60;36.70;;;14.50;79.60;;;;;;4594619;19;20429;-70
2024/01/18 05:52:03;;;;;;;46.07;35.37;;;14.60;79.60;;;;;;4596680;19;20040;-70
2024/01/18 05:53:38;;;;;;;44.57;34.83;;;14.60;79.40;;;;;;4596421;19;19998;-70
2024/01/18 05:55:14;;;;;;;45.30;37.10;;;14.70;79.30;;;;;;4595192;19;20026;-70
2024/01/18 05:56:48;;;;;;;43.60;33.40;;;14.80;79.20;;;;;;4595892;19;20439;-70
2024/01/18 05:58:23;;;;;;;41.97;32.70;;;14.80;79.00;;;;;;4596370;19;20071;-70
2024/01/18 05:59:59;;;;;;;40.00;31.40;;;14.80;78.80;;;;;;4596537;19;20011;-70
2024/01/18 06:01:34;;;;;;;43.23;32.37;;;14.80;78.70;;;;;;4596156;19;20010;-70
2024/01/18 06:03:09;;;;;;;44.30;33.77;;;14.80;78.70;;;;;;4595108;19;20005;-70
2024/01/18 06:04:44;;;;;;;38.70;31.47;;;14.80;78.80;;;;;;4595131;19;20006;-70
2024/01/18 06:06:19;;;;;;;43.20;32.77;;;14.80;78.60;;;;;;4594645;19;20448;-70
2024/01/18 06:07:53;;;;;;;44.87;33.17;;;14.70;78.50;;;;;;4594240;19;20003;-70
2024/01/18 06:09:29;;;;;;;42.67;32.90;;;14.70;78.60;;;;;;4594770;19;20407;-71
2024/01/18 06:11:04;;;;;;;41.97;32.70;;;14.60;78.50;;;;;;4595966;19;20304;-70
2024/01/18 06:12:38;;;;;;;48.87;33.73;;;14.60;78.50;;;;;;4596299;19;20007;-70
2024/01/18 06:14:13;;;;;;;43.67;34.10;;;14.60;78.50;;;;;;4594915;19;20003;-70
2024/01/18 06:15:47;;;;;;;44.83;33.23;;;14.50;78.60;;;;;;4594824;19;20343;-70
2024/01/18 06:17:21;;;;;;;45.80;34.63;;;14.50;78.60;;;;;;4594635;19;20409;-70
2024/01/18 06:18:58;;;;;;;44.53;32.43;;;14.40;78.40;;;;;;4595808;19;20019;-70
2024/01/18 06:20:32;;;;;;;46.20;32.23;;;14.40;78.50;;;;;;4595695;19;20028;-70
2024/01/18 06:22:06;;;;;;;45.63;34.80;;;14.40;78.60;;;;;;4595667;19;20006;-70
2024/01/18 06:23:42;;;;;;;49.33;35.93;;;14.40;78.70;;;;;;4595469;19;20005;-70
2024/01/18 06:25:17;;;;;;;51.17;38.13;;;14.30;78.60;;;;;;4594503;19;20358;-71
2024/01/18 06:26:51;;;;;;;51.30;36.23;;;14.30;78.80;;;;;;4595129;19;20460;-70
2024/01/18 06:28:28;;;;;;;48.80;36.63;;;14.20;78.80;;;;;;4592479;19;20018;-70
2024/01/18 06:30:02;;;;;;;48.37;35.73;;;14.20;78.80;;;;;;4595348;19;20003;-70
2024/01/18 06:31:36;;;;;;;50.43;36.67;;;14.20;78.90;;;;;;4594293;19;19998;-70
2024/01/18 06:33:12;;;;;;;54.40;40.33;;;14.10;78.90;;;;;;4594260;19;20030;-70
2024/01/18 06:34:47;;;;;;;47.27;35.40;;;14.10;78.80;;;;;;4594318;19;20002;-70
2024/01/18 06:36:22;;;;;;;52.27;39.70;;;14.10;78.90;;;;;;4595348;19;20002;-70
2024/01/18 06:37:58;;;;;;;59.80;43.50;;;14.00;78.90;;;;;;4594253;19;20018;-70
2024/01/18 06:39:31;;;;;;;65.03;46.27;;;14.00;78.90;;;;;;4595617;19;20350;-70
2024/01/18 06:41:05;;;;;;;55.97;45.00;;;13.90;78.90;;;;;;4595189;19;20016;-70
2024/01/18 06:42:41;;;;;;;58.90;47.67;;;13.90;78.80;;;;;;4594208;19;20017;-70
2024/01/18 06:44:17;;;;;;;60.80;48.93;;;13.90;78.80;;;;;;4594173;19;20470;-70
2024/01/18 06:45:55;;;;;;;54.40;43.37;;;13.80;78.80;;;;;;4594822;19;20002;-70
2024/01/18 06:47:33;;;;;;;51.73;40.33;;;13.80;78.90;;;;;;4594032;19;20094;-70
2024/01/18 06:49:08;;;;;;;45.43;36.53;;;13.80;78.90;;;;;;4594678;19;20038;-72
2024/01/18 06:50:42;;;;;;;45.33;36.23;;;13.80;78.80;;;;;;4595128;19;20004;-70
2024/01/18 06:52:17;;;;;;;50.23;37.70;;;13.80;78.80;;;;;;4594136;19;20423;-70
2024/01/18 06:53:52;;;;;;;67.00;49.73;;;13.70;78.70;;;;;;4594931;19;20010;-70
2024/01/18 06:55:26;;;;;;;54.40;41.03;;;13.70;78.60;;;;;;4595311;19;20327;-70
2024/01/18 06:57:02;;;;;;;49.27;37.47;;;13.70;78.50;;;;;;4594842;19;20025;-70
2024/01/18 06:58:37;;;;;;;49.07;35.90;;;13.60;78.50;;;;;;4595224;19;20440;-70
2024/01/18 07:00:12;;;;;;;57.17;44.13;;;13.60;78.60;;;;;;4594827;19;20007;-70
2024/01/18 07:01:47;;;;;;;53.77;40.97;;;13.60;78.50;;;;;;4592452;19;19999;-70
2024/01/18 07:03:21;;;;;;;64.90;47.20;;;13.60;78.50;;;;;;4593712;19;20030;-70
2024/01/18 07:04:55;;;;;;;83.07;57.90;;;13.60;78.40;;;;;;4594763;19;20511;-70
2024/01/18 07:06:32;;;;;;;72.53;54.47;;;13.50;78.40;;;;;;4594797;19;20007;-70
2024/01/18 07:08:06;;;;;;;76.07;55.53;;;13.50;78.20;;;;;;4593410;19;20012;-70
2024/01/18 07:09:41;;;;;;;90.40;65.40;;;13.50;78.30;;;;;;4593277;19;20392;-70
2024/01/18 07:11:18;;;;;;;104.60;78.43;;;13.50;78.20;;;;;;4594625;19;20006;-70
2024/01/18 07:12:52;;;;;;;119.97;82.40;;;13.50;78.20;;;;;;4594659;19;20006;-70
2024/01/18 07:14:26;;;;;;;100.70;66.87;;;13.40;78.10;;;;;;4593502;19;20345;-70
2024/01/18 07:16:02;;;;;;;79.77;53.07;;;13.40;78.00;;;;;;4594303;19;20010;-70
2024/01/18 07:17:37;;;;;;;95.37;60.20;;;13.40;78.10;;;;;;4593574;19;20425;-70
2024/01/18 07:19:11;;;;;;;62.90;44.60;;;13.40;78.00;;;;;;4593189;19;19998;-70
2024/01/18 07:20:47;;;;;;;81.37;57.57;;;13.40;78.10;;;;;;4594177;19;20377;-70
2024/01/18 07:22:21;;;;;;;108.73;74.13;;;13.40;78.10;;;;;;4594729;19;20389;-71
2024/01/18 07:23:55;;;;;;;78.63;56.50;;;13.40;78.00;;;;;;4594746;19;19998;-71
2024/01/18 07:25:30;;;;;;;55.97;43.20;;;13.40;78.00;;;;;;4594420;19;20051;-70
2024/01/18 07:27:09;;;;;;;65.67;45.67;;;13.40;77.80;;;;;;4593851;19;20429;-70
2024/01/18 07:28:43;;;;;;;122.33;66.50;;;13.50;77.70;;;;;;4594671;19;20868;-70
2024/01/18 07:30:19;;;;;;;105.60;57.17;;;13.50;77.60;;;;;;4594206;19;20500;-70
2024/01/18 07:31:53;;;;;;;97.53;53.27;;;13.50;77.60;;;;;;4594433;19;20410;-70
2024/01/18 07:33:28;;;;;;;105.97;62.33;;;13.50;77.50;;;;;;4594169;19;20333;-70
2024/01/18 07:35:03;;;;;;;52.17;39.37;;;13.50;77.50;;;;;;4594283;19;19999;-70
2024/01/18 07:36:37;;;;;;;51.30;37.27;;;13.50;77.60;;;;;;4593057;19;20417;-70
2024/01/18 07:38:13;;;;;;;49.43;38.03;;;13.50;77.70;;;;;;4592296;19;20013;-70
2024/01/18 07:39:50;;;;;;;54.03;38.47;;;13.50;77.70;;;;;;4594232;19;20357;-70
2024/01/18 07:41:25;;;;;;;45.97;38.53;;;13.50;77.70;;;;;;4594072;19;20007;-70
2024/01/18 07:42:59;;;;;;;86.83;57.13;;;13.50;77.70;;;;;;4594082;19;20002;-70
2024/01/18 07:44:35;;;;;;;88.63;55.67;;;13.50;77.60;;;;;;4592729;19;20007;-70
2024/01/18 07:46:10;;;;;;;65.20;44.57;;;13.40;77.60;;;;;;4593674;19;20003;-70
2024/01/18 07:47:46;;;;;;;66.20;44.73;;;13.40;77.60;;;;;;4592811;19;20030;-70
2024/01/18 07:49:21;;;;;;;64.23;44.90;;;13.40;77.70;;;;;;4592039;19;20014;-70
2024/01/18 07:50:57;;;;;;;75.13;49.07;;;13.40;77.80;;;;;;4592724;19;20003;-71
2024/01/18 07:52:32;;;;;;;90.30;58.70;;;13.40;77.70;;;;;;4593704;19;20003;-70
2024/01/18 07:54:08;;;;;;;78.80;56.10;;;13.40;77.70;;;;;;4594035;19;20389;-70
2024/01/18 07:55:43;;;;;;;56.10;42.27;;;13.40;77.70;;;;;;4593572;19;20966;-70
2024/01/18 07:57:17;;;;;;;63.03;43.80;;;13.30;77.90;;;;;;4593017;19;20009;-70
2024/01/18 07:58:52;;;;;;;59.03;43.37;;;13.30;77.90;;;;;;4593942;19;20006;-70
2024/01/18 08:00:26;;;;;;;61.53;45.97;;;13.30;78.00;;;;;;4593846;19;20009;-70
2024/01/18 08:02:00;;;;;;;50.77;41.70;;;13.30;78.10;;;;;;4592272;19;19998;-70
2024/01/18 08:03:35;;;;;;;45.97;35.73;;;13.30;78.30;;;;;;4593671;19;20298;-70
2024/01/18 08:05:10;;;;;;;102.73;68.40;;;13.30;78.40;;;;;;4593499;19;20318;-70
2024/01/18 08:06:44;;;;;;;88.17;56.97;;;13.20;78.40;;;;;;4593301;19;20718;-70
2024/01/18 08:08:20;;;;;;;56.23;40.43;;;13.20;78.30;;;;;;4592605;19;20006;-70
2024/01/18 08:09:54;;;;;;;44.97;36.07;;;13.20;78.30;;;;;;4593552;19;20412;-70
2024/01/18 08:11:29;;;;;;;53.23;40.03;;;13.30;78.30;;;;;;4593582;19;20006;-70
2024/01/18 08:13:04;;;;;;;54.90;40.20;;;13.20;78.20;;;;;;4592603;19;20349;-70
2024/01/18 08:14:43;;;;;;;66.97;46.30;;;13.20;78.20;;;;;;4593279;19;20423;-70
2024/01/18 08:16:17;;;;;;;76.90;50.13;;;13.20;78.30;;;;;;4592169;19;20370;-70
2024/01/18 08:17:53;;;;;;;55.93;40.07;;;13.20;78.20;;;;;;4592198;19;20478;-70